sensor_id;sensor_type;location;lat;lon;timestamp;pressure;altitude;pressure_sealevel;temperature;humidity
788;BME280;16074;42.708;23.312;2022-10-16T00:01:09;140931.88;;;10.86;90.88
788;BME280;16074;42.708;23.312;2022-10-16T00:03:39;140939.09;;;10.89;89.73
788;BME280;16074;42.708;23.312;2022-10-16T00:06:08;140937.88;;;10.88;89.78
788;BME280;16074;42.708;23.312;2022-10-16T00:08:38;140929.47;;;10.85;89.85
788;BME280;16074;42.708;23.312;2022-10-16T00:11:09;140919.81;;;10.81;90.00
788;BME280;16074;42.708;23.312;2022-10-16T00:13:41;140927.06;;;10.84;89.91
788;BME280;16074;42.708;23.312;2022-10-16T00:16:10;140911.38;;;10.77;89.33
788;BME280;16074;42.708;23.312;2022-10-16T00:18:39;140915.00;;;10.79;89.88
788;BME280;16074;42.708;23.312;2022-10-16T00:21:10;140906.59;;;10.75;90.49
788;BME280;16074;42.708;23.312;2022-10-16T00:23:59;140912.59;;;10.78;90.85
788;BME280;16074;42.708;23.312;2022-10-16T00:26:29;140896.94;;;10.71;91.38
788;BME280;16074;42.708;23.312;2022-10-16T00:28:59;140886.09;;;10.67;91.48
788;BME280;16074;42.708;23.312;2022-10-16T00:31:28;140868.03;;;10.60;91.47
788;BME280;16074;42.708;23.312;2022-10-16T00:33:56;140853.59;;;10.54;92.08
788;BME280;16074;42.708;23.312;2022-10-16T00:36:25;140857.19;;;10.55;92.20
788;BME280;16074;42.708;23.312;2022-10-16T00:38:55;140858.41;;;10.56;92.48
788;BME280;16074;42.708;23.312;2022-10-16T00:41:25;140823.50;;;10.41;93.45
788;BME280;16074;42.708;23.312;2022-10-16T00:43:55;140815.06;;;10.38;93.38
788;BME280;16074;42.708;23.312;2022-10-16T00:46:27;140818.69;;;10.39;93.77
788;BME280;16074;42.708;23.312;2022-10-16T00:49:00;140816.28;;;10.38;94.54
788;BME280;16074;42.708;23.312;2022-10-16T00:51:32;140787.38;;;10.26;94.97
788;BME280;16074;42.708;23.312;2022-10-16T00:54:02;140786.16;;;10.26;95.31
788;BME280;16074;42.708;23.312;2022-10-16T00:56:32;140783.75;;;10.25;95.57
788;BME280;16074;42.708;23.312;2022-10-16T00:59:03;140771.75;;;10.20;95.43
788;BME280;16074;42.708;23.312;2022-10-16T01:01:35;140763.28;;;10.16;95.67
788;BME280;16074;42.708;23.312;2022-10-16T01:04:04;140747.66;;;10.10;95.79
788;BME280;16074;42.708;23.312;2022-10-16T01:06:36;140740.44;;;10.07;96.43
788;BME280;16074;42.708;23.312;2022-10-16T01:09:12;140729.59;;;10.02;96.50
788;BME280;16074;42.708;23.312;2022-10-16T01:11:49;140709.09;;;9.94;97.31
788;BME280;16074;42.708;23.312;2022-10-16T01:14:23;140713.91;;;9.96;97.10
788;BME280;16074;42.708;23.312;2022-10-16T01:17:00;140721.13;;;9.99;97.43
788;BME280;16074;42.708;23.312;2022-10-16T01:19:41;140711.50;;;9.95;97.54
788;BME280;16074;42.708;23.312;2022-10-16T01:22:12;140709.09;;;9.94;97.85
788;BME280;16074;42.708;23.312;2022-10-16T01:24:44;140699.47;;;9.90;97.45
788;BME280;16074;42.708;23.312;2022-10-16T01:27:19;140686.25;;;9.84;97.55
788;BME280;16074;42.708;23.312;2022-10-16T01:29:53;140662.19;;;9.74;98.24
788;BME280;16074;42.708;23.312;2022-10-16T01:32:28;140654.97;;;9.71;97.93
788;BME280;16074;42.708;23.312;2022-10-16T01:35:02;140651.31;;;9.70;98.36
788;BME280;16074;42.708;23.312;2022-10-16T01:37:36;140658.53;;;9.73;98.05
788;BME280;16074;42.708;23.312;2022-10-16T01:40:08;140656.13;;;9.72;98.22
788;BME280;16074;42.708;23.312;2022-10-16T01:42:41;140656.13;;;9.72;98.15
788;BME280;16074;42.708;23.312;2022-10-16T01:45:13;140654.97;;;9.71;98.29
788;BME280;16074;42.708;23.312;2022-10-16T01:47:45;140673.00;;;9.79;97.54
788;BME280;16074;42.708;23.312;2022-10-16T01:50:15;140673.00;;;9.79;98.13
788;BME280;16074;42.708;23.312;2022-10-16T01:52:48;140671.81;;;9.78;97.39
788;BME280;16074;42.708;23.312;2022-10-16T01:55:20;140667.00;;;9.76;97.69
788;BME280;16074;42.708;23.312;2022-10-16T01:57:52;140677.81;;;9.81;96.75
788;BME280;16074;42.708;23.312;2022-10-16T02:00:23;140681.44;;;9.82;96.44
788;BME280;16074;42.708;23.312;2022-10-16T02:02:53;140685.03;;;9.84;96.48
788;BME280;16074;42.708;23.312;2022-10-16T02:05:25;140682.63;;;9.83;96.19
788;BME280;16074;42.708;23.312;2022-10-16T02:07:55;140673.00;;;9.79;96.61
788;BME280;16074;42.708;23.312;2022-10-16T02:10:27;140673.00;;;9.79;96.67
788;BME280;16074;42.708;23.312;2022-10-16T02:13:03;140674.22;;;9.79;96.26
788;BME280;16074;42.708;23.312;2022-10-16T02:15:31;140663.34;;;9.75;96.34
788;BME280;16074;42.708;23.312;2022-10-16T02:17:59;140659.78;;;9.73;96.61
788;BME280;16074;42.708;23.312;2022-10-16T02:20:30;140656.13;;;9.72;96.65
788;BME280;16074;42.708;23.312;2022-10-16T02:23:01;140656.13;;;9.72;96.31
788;BME280;16074;42.708;23.312;2022-10-16T02:25:32;140651.31;;;9.70;96.22
788;BME280;16074;42.708;23.312;2022-10-16T02:28:09;140630.88;;;9.61;96.52
788;BME280;16074;42.708;23.312;2022-10-16T02:30:42;140636.88;;;9.64;96.11
788;BME280;16074;42.708;23.312;2022-10-16T02:33:14;140609.22;;;9.52;96.61
788;BME280;16074;42.708;23.312;2022-10-16T02:35:46;140562.31;;;9.33;97.07
788;BME280;16074;42.708;23.312;2022-10-16T02:38:16;140577.94;;;9.40;97.82
788;BME280;16074;42.708;23.312;2022-10-16T02:40:45;140579.16;;;9.40;97.10
788;BME280;16074;42.708;23.312;2022-10-16T02:43:16;140576.75;;;9.39;97.21
788;BME280;16074;42.708;23.312;2022-10-16T02:45:44;140575.53;;;9.39;97.02
788;BME280;16074;42.708;23.312;2022-10-16T02:48:12;140565.97;;;9.35;97.13
788;BME280;16074;42.708;23.312;2022-10-16T02:50:41;140564.72;;;9.34;96.52
788;BME280;16074;42.708;23.312;2022-10-16T02:53:09;140545.47;;;9.26;96.87
788;BME280;16074;42.708;23.312;2022-10-16T02:55:38;140546.72;;;9.27;96.58
788;BME280;16074;42.708;23.312;2022-10-16T02:58:06;140538.25;;;9.23;96.84
788;BME280;16074;42.708;23.312;2022-10-16T03:00:36;140537.09;;;9.23;96.69
788;BME280;16074;42.708;23.312;2022-10-16T03:03:04;140533.44;;;9.21;96.14
788;BME280;16074;42.708;23.312;2022-10-16T03:05:32;140533.44;;;9.21;96.81
788;BME280;16074;42.708;23.312;2022-10-16T03:08:01;140521.44;;;9.16;96.31
788;BME280;16074;42.708;23.312;2022-10-16T03:10:29;140523.84;;;9.17;96.50
788;BME280;16074;42.708;23.312;2022-10-16T03:12:57;140521.44;;;9.16;96.33
788;BME280;16074;42.708;23.312;2022-10-16T03:15:25;140523.84;;;9.17;96.22
788;BME280;16074;42.708;23.312;2022-10-16T03:17:57;140504.59;;;9.09;96.44
788;BME280;16074;42.708;23.312;2022-10-16T03:20:26;140502.19;;;9.08;96.95
788;BME280;16074;42.708;23.312;2022-10-16T03:22:54;140509.41;;;9.11;96.64
788;BME280;16074;42.708;23.312;2022-10-16T03:25:22;140492.59;;;9.04;96.42
788;BME280;16074;42.708;23.312;2022-10-16T03:27:51;140481.75;;;9.00;96.53
788;BME280;16074;42.708;23.312;2022-10-16T03:30:19;140470.94;;;8.95;96.60
788;BME280;16074;42.708;23.312;2022-10-16T03:32:47;140467.31;;;8.94;97.17
788;BME280;16074;42.708;23.312;2022-10-16T03:35:22;140464.91;;;8.93;97.25
788;BME280;16074;42.708;23.312;2022-10-16T03:37:51;140461.34;;;8.91;97.61
788;BME280;16074;42.708;23.312;2022-10-16T03:40:19;140450.50;;;8.87;97.67
788;BME280;16074;42.708;23.312;2022-10-16T03:42:47;140446.91;;;8.85;97.69
788;BME280;16074;42.708;23.312;2022-10-16T03:45:15;140421.69;;;8.75;98.00
788;BME280;16074;42.708;23.312;2022-10-16T03:47:44;140422.84;;;8.75;98.36
788;BME280;16074;42.708;23.312;2022-10-16T03:50:12;140427.66;;;8.77;98.60
788;BME280;16074;42.708;23.312;2022-10-16T03:52:41;140416.88;;;8.73;98.78
788;BME280;16074;42.708;23.312;2022-10-16T03:55:09;140421.69;;;8.75;98.93
788;BME280;16074;42.708;23.312;2022-10-16T03:57:38;140406.03;;;8.68;99.07
788;BME280;16074;42.708;23.312;2022-10-16T04:00:07;140418.03;;;8.73;98.62
788;BME280;16074;42.708;23.312;2022-10-16T04:02:37;140426.47;;;8.77;98.13
788;BME280;16074;42.708;23.312;2022-10-16T04:05:06;140419.28;;;8.74;98.37
788;BME280;16074;42.708;23.312;2022-10-16T04:07:35;140420.44;;;8.74;98.15
788;BME280;16074;42.708;23.312;2022-10-16T04:10:05;140413.25;;;8.71;97.49
788;BME280;16074;42.708;23.312;2022-10-16T04:12:33;140410.84;;;8.70;97.71
788;BME280;16074;42.708;23.312;2022-10-16T04:15:02;140402.44;;;8.67;97.87
788;BME280;16074;42.708;23.312;2022-10-16T04:17:30;140403.63;;;8.67;98.01
788;BME280;16074;42.708;23.312;2022-10-16T04:19:58;140398.81;;;8.65;97.71
788;BME280;16074;42.708;23.312;2022-10-16T04:22:27;140403.63;;;8.67;97.87
788;BME280;16074;42.708;23.312;2022-10-16T04:24:55;140400.03;;;8.66;97.72
788;BME280;16074;42.708;23.312;2022-10-16T04:27:24;140397.63;;;8.65;98.17
788;BME280;16074;42.708;23.312;2022-10-16T04:29:53;140394.00;;;8.63;97.98
788;BME280;16074;42.708;23.312;2022-10-16T04:32:21;140378.38;;;8.57;98.39
788;BME280;16074;42.708;23.312;2022-10-16T04:34:50;140377.16;;;8.56;98.57
788;BME280;16074;42.708;23.312;2022-10-16T04:37:18;140379.56;;;8.57;99.36
788;BME280;16074;42.708;23.312;2022-10-16T04:39:46;140369.97;;;8.53;99.04
788;BME280;16074;42.708;23.312;2022-10-16T04:42:14;140367.56;;;8.52;99.56
788;BME280;16074;42.708;23.312;2022-10-16T04:44:44;140368.78;;;8.53;99.34
788;BME280;16074;42.708;23.312;2022-10-16T04:47:12;140355.56;;;8.47;99.23
788;BME280;16074;42.708;23.312;2022-10-16T04:49:41;140339.94;;;8.41;99.61
788;BME280;16074;42.708;23.312;2022-10-16T04:52:09;140342.31;;;8.42;100.00
788;BME280;16074;42.708;23.312;2022-10-16T04:54:37;140348.38;;;8.44;100.00
788;BME280;16074;42.708;23.312;2022-10-16T04:57:05;140341.16;;;8.41;100.00
788;BME280;16074;42.708;23.312;2022-10-16T04:59:34;140338.75;;;8.40;100.00
788;BME280;16074;42.708;23.312;2022-10-16T05:02:04;140348.38;;;8.44;100.00
788;BME280;16074;42.708;23.312;2022-10-16T05:04:32;140324.31;;;8.34;100.00
788;BME280;16074;42.708;23.312;2022-10-16T05:07:00;140336.34;;;8.39;100.00
788;BME280;16074;42.708;23.312;2022-10-16T05:09:28;140348.38;;;8.44;100.00
788;BME280;16074;42.708;23.312;2022-10-16T05:11:57;140338.75;;;8.40;100.00
788;BME280;16074;42.708;23.312;2022-10-16T05:14:25;140336.34;;;8.39;100.00
788;BME280;16074;42.708;23.312;2022-10-16T05:16:53;140344.72;;;8.43;100.00
788;BME280;16074;42.708;23.312;2022-10-16T05:19:22;140355.56;;;8.47;100.00
788;BME280;16074;42.708;23.312;2022-10-16T05:21:54;140372.34;;;8.54;100.00
788;BME280;16074;42.708;23.312;2022-10-16T05:24:22;140366.38;;;8.52;100.00
788;BME280;16074;42.708;23.312;2022-10-16T05:26:50;140372.34;;;8.54;100.00
788;BME280;16074;42.708;23.312;2022-10-16T05:29:19;140390.41;;;8.62;100.00
788;BME280;16074;42.708;23.312;2022-10-16T05:31:50;140401.22;;;8.66;100.00
788;BME280;16074;42.708;23.312;2022-10-16T05:34:19;140409.66;;;8.70;100.00
788;BME280;16074;42.708;23.312;2022-10-16T05:36:49;140420.44;;;8.74;100.00
788;BME280;16074;42.708;23.312;2022-10-16T05:39:17;140434.88;;;8.80;100.00
788;BME280;16074;42.708;23.312;2022-10-16T05:41:45;140440.88;;;8.83;100.00
788;BME280;16074;42.708;23.312;2022-10-16T05:44:14;140444.50;;;8.84;100.00
788;BME280;16074;42.708;23.312;2022-10-16T05:46:42;140474.53;;;8.97;100.00
788;BME280;16074;42.708;23.312;2022-10-16T05:49:10;140488.97;;;9.03;100.00
788;BME280;16074;42.708;23.312;2022-10-16T05:51:38;140508.22;;;9.11;100.00
788;BME280;16074;42.708;23.312;2022-10-16T05:54:09;140515.44;;;9.14;100.00
788;BME280;16074;42.708;23.312;2022-10-16T05:56:37;140534.69;;;9.22;100.00
788;BME280;16074;42.708;23.312;2022-10-16T05:59:06;140568.31;;;9.36;100.00
788;BME280;16074;42.708;23.312;2022-10-16T06:01:34;140580.34;;;9.41;99.81
788;BME280;16074;42.708;23.312;2022-10-16T06:04:02;140597.19;;;9.47;99.91
788;BME280;16074;42.708;23.312;2022-10-16T06:06:31;140620.06;;;9.57;99.40
788;BME280;16074;42.708;23.312;2022-10-16T06:08:59;140623.66;;;9.58;97.98
788;BME280;16074;42.708;23.312;2022-10-16T06:11:30;140657.38;;;9.72;97.07
788;BME280;16074;42.708;23.312;2022-10-16T06:14:00;140687.44;;;9.85;95.66
788;BME280;16074;42.708;23.312;2022-10-16T06:16:29;140712.69;;;9.95;95.93
788;BME280;16074;42.708;23.312;2022-10-16T06:18:57;140747.66;;;10.10;95.64
788;BME280;16074;42.708;23.312;2022-10-16T06:21:28;140809.06;;;10.35;93.96
788;BME280;16074;42.708;23.312;2022-10-16T06:23:57;140852.38;;;10.53;92.66
788;BME280;16074;42.708;23.312;2022-10-16T06:26:27;140916.19;;;10.79;91.05
788;BME280;16074;42.708;23.312;2022-10-16T06:28:58;140977.59;;;11.05;89.31
788;BME280;16074;42.708;23.312;2022-10-16T06:31:27;141053.50;;;11.36;87.81
788;BME280;16074;42.708;23.312;2022-10-16T06:33:58;141107.84;;;11.59;85.39
788;BME280;16074;42.708;23.312;2022-10-16T06:36:26;141209.09;;;12.00;83.74
788;BME280;16074;42.708;23.312;2022-10-16T06:38:55;141281.41;;;12.30;82.04
788;BME280;16074;42.708;23.312;2022-10-16T06:41:23;141355.00;;;12.61;80.14
788;BME280;16074;42.708;23.312;2022-10-16T06:43:51;141447.97;;;12.99;77.35
788;BME280;16074;42.708;23.312;2022-10-16T06:46:23;141561.41;;;13.46;75.54
788;BME280;16074;42.708;23.312;2022-10-16T06:48:52;141633.88;;;13.76;73.37
788;BME280;16074;42.708;23.312;2022-10-16T06:51:22;141696.66;;;14.02;70.74
788;BME280;16074;42.708;23.312;2022-10-16T06:53:51;141746.25;;;14.22;70.18
788;BME280;16074;42.708;23.312;2022-10-16T06:56:31;141842.94;;;14.62;68.20
788;BME280;16074;42.708;23.312;2022-10-16T06:58:59;141833.28;;;14.58;66.53
788;BME280;16074;42.708;23.312;2022-10-16T07:01:29;141949.31;;;15.06;65.83
788;BME280;16074;42.708;23.312;2022-10-16T07:03:58;142006.19;;;15.29;63.89
788;BME280;16074;42.708;23.312;2022-10-16T07:06:27;142008.59;;;15.30;63.56
788;BME280;16074;42.708;23.312;2022-10-16T07:08:55;142086.00;;;15.62;62.20
788;BME280;16074;42.708;23.312;2022-10-16T07:11:23;142131.97;;;15.81;61.40
788;BME280;16074;42.708;23.312;2022-10-16T07:13:52;142217.91;;;16.16;59.88
788;BME280;16074;42.708;23.312;2022-10-16T07:16:23;142268.81;;;16.37;59.57
788;BME280;16074;42.708;23.312;2022-10-16T07:18:54;142339.00;;;16.66;58.26
788;BME280;16074;42.708;23.312;2022-10-16T07:21:28;142404.41;;;16.93;56.98
788;BME280;16074;42.708;23.312;2022-10-16T07:23:57;142513.47;;;17.38;55.99
788;BME280;16074;42.708;23.312;2022-10-16T07:26:27;142549.84;;;17.53;54.52
788;BME280;16074;42.708;23.312;2022-10-16T07:28:56;142595.88;;;17.72;54.04
788;BME280;16074;42.708;23.312;2022-10-16T07:31:25;142669.81;;;18.02;52.88
788;BME280;16074;42.708;23.312;2022-10-16T07:33:57;142734.09;;;18.28;52.88
788;BME280;16074;42.708;23.312;2022-10-16T07:36:26;142667.38;;;18.01;52.98
788;BME280;16074;42.708;23.312;2022-10-16T07:38:55;142783.81;;;18.49;51.98
788;BME280;16074;42.708;23.312;2022-10-16T07:41:26;142751.09;;;18.35;52.02
788;BME280;16074;42.708;23.312;2022-10-16T07:43:55;142782.63;;;18.48;51.47
788;BME280;16074;42.708;23.312;2022-10-16T07:46:26;142717.06;;;18.21;51.62
788;BME280;16074;42.708;23.312;2022-10-16T07:48:56;142810.50;;;18.60;50.63
788;BME280;16074;42.708;23.312;2022-10-16T07:51:25;142903.94;;;18.98;49.66
788;BME280;16074;42.708;23.312;2022-10-16T07:53:54;142920.91;;;19.05;49.34
788;BME280;16074;42.708;23.312;2022-10-16T07:56:22;142918.50;;;19.04;49.36
788;BME280;16074;42.708;23.312;2022-10-16T07:58:51;142978.00;;;19.28;49.28
788;BME280;16074;42.708;23.312;2022-10-16T08:01:19;143062.94;;;19.63;48.48
788;BME280;16074;42.708;23.312;2022-10-16T08:03:49;143054.47;;;19.60;48.50
788;BME280;16074;42.708;23.312;2022-10-16T08:06:20;143093.34;;;19.76;48.26
788;BME280;16074;42.708;23.312;2022-10-16T08:08:54;142995.00;;;19.35;48.73
788;BME280;16074;42.708;23.312;2022-10-16T08:11:22;143087.25;;;19.73;47.72
788;BME280;16074;42.708;23.312;2022-10-16T08:13:51;143007.13;;;19.40;48.66
788;BME280;16074;42.708;23.312;2022-10-16T08:16:20;143096.94;;;19.77;48.57
788;BME280;16074;42.708;23.312;2022-10-16T08:18:48;143093.34;;;19.76;47.01
788;BME280;16074;42.708;23.312;2022-10-16T08:21:21;143130.97;;;19.91;47.03
788;BME280;16074;42.708;23.312;2022-10-16T08:23:50;143195.38;;;20.18;47.35
788;BME280;16074;42.708;23.312;2022-10-16T08:26:24;143271.91;;;20.49;46.62
788;BME280;16074;42.708;23.312;2022-10-16T08:28:52;143202.66;;;20.21;46.18
788;BME280;16074;42.708;23.312;2022-10-16T08:31:21;143269.47;;;20.48;46.27
788;BME280;16074;42.708;23.312;2022-10-16T08:33:50;143326.56;;;20.71;45.79
788;BME280;16074;42.708;23.312;2022-10-16T08:36:20;143431.13;;;21.14;45.16
788;BME280;16074;42.708;23.312;2022-10-16T08:38:49;143498.00;;;21.42;43.72
788;BME280;16074;42.708;23.312;2022-10-16T08:41:30;143440.84;;;21.18;43.86
788;BME280;16074;42.708;23.312;2022-10-16T08:44:18;143415.34;;;21.08;44.06
788;BME280;16074;42.708;23.312;2022-10-16T08:47:00;143468.78;;;21.30;43.70
788;BME280;16074;42.708;23.312;2022-10-16T08:49:31;143510.16;;;21.47;42.95
788;BME280;16074;42.708;23.312;2022-10-16T08:52:00;143517.44;;;21.50;42.26
788;BME280;16074;42.708;23.312;2022-10-16T08:54:31;143490.69;;;21.39;42.88
788;BME280;16074;42.708;23.312;2022-10-16T08:57:09;143473.66;;;21.32;43.04
788;BME280;16074;42.708;23.312;2022-10-16T08:59:39;143487.06;;;21.37;42.30
788;BME280;16074;42.708;23.312;2022-10-16T09:02:22;143449.38;;;21.22;41.55
788;BME280;16074;42.708;23.312;2022-10-16T09:05:10;143534.47;;;21.57;42.05
788;BME280;16074;42.708;23.312;2022-10-16T09:07:52;143472.47;;;21.31;42.32
788;BME280;16074;42.708;23.312;2022-10-16T09:10:33;143519.88;;;21.51;40.65
788;BME280;16074;42.708;23.312;2022-10-16T09:13:14;143539.34;;;21.59;40.69
788;BME280;16074;42.708;23.312;2022-10-16T09:15:50;143549.13;;;21.63;39.45
788;BME280;16074;42.708;23.312;2022-10-16T09:18:26;143538.09;;;21.58;39.34
788;BME280;16074;42.708;23.312;2022-10-16T09:21:04;143518.69;;;21.50;39.69
788;BME280;16074;42.708;23.312;2022-10-16T09:23:37;143560.03;;;21.67;39.12
788;BME280;16074;42.708;23.312;2022-10-16T09:26:09;143584.38;;;21.77;38.73
788;BME280;16074;42.708;23.312;2022-10-16T09:28:39;143647.66;;;22.03;38.72
788;BME280;16074;42.708;23.312;2022-10-16T09:31:13;143714.56;;;22.30;38.01
788;BME280;16074;42.708;23.312;2022-10-16T09:33:43;143721.84;;;22.33;37.20
788;BME280;16074;42.708;23.312;2022-10-16T09:36:13;143524.75;;;21.53;37.91
788;BME280;16074;42.708;23.312;2022-10-16T09:38:43;143523.56;;;21.52;38.83
788;BME280;16074;42.708;23.312;2022-10-16T09:41:18;143369.13;;;20.89;39.73
788;BME280;16074;42.708;23.312;2022-10-16T09:43:53;143337.47;;;20.76;40.24
788;BME280;16074;42.708;23.312;2022-10-16T09:46:28;143352.13;;;20.82;40.49
788;BME280;16074;42.708;23.312;2022-10-16T09:48:58;143460.31;;;21.26;39.82
788;BME280;16074;42.708;23.312;2022-10-16T09:51:29;143530.81;;;21.55;40.10
788;BME280;16074;42.708;23.312;2022-10-16T09:54:00;143557.59;;;21.66;38.48
788;BME280;16074;42.708;23.312;2022-10-16T09:56:31;143579.50;;;21.75;38.52
788;BME280;16074;42.708;23.312;2022-10-16T09:59:01;143642.78;;;22.01;38.16
788;BME280;16074;42.708;23.312;2022-10-16T10:01:35;143685.34;;;22.18;37.40
788;BME280;16074;42.708;23.312;2022-10-16T10:04:05;143659.81;;;22.08;38.23
788;BME280;16074;42.708;23.312;2022-10-16T10:06:35;143703.56;;;22.26;38.55
788;BME280;16074;42.708;23.312;2022-10-16T10:09:16;143764.50;;;22.51;38.87
788;BME280;16074;42.708;23.312;2022-10-16T10:11:51;143837.50;;;22.81;38.19
788;BME280;16074;42.708;23.312;2022-10-16T10:14:22;143909.38;;;23.10;37.72
788;BME280;16074;42.708;23.312;2022-10-16T10:16:52;143956.84;;;23.29;37.42
788;BME280;16074;42.708;23.312;2022-10-16T10:19:22;144018.94;;;23.55;37.11
788;BME280;16074;42.708;23.312;2022-10-16T10:21:56;144097.00;;;23.87;37.30
788;BME280;16074;42.708;23.312;2022-10-16T10:24:26;144155.44;;;24.11;36.24
788;BME280;16074;42.708;23.312;2022-10-16T10:26:59;144245.66;;;24.47;35.92
788;BME280;16074;42.708;23.312;2022-10-16T10:29:48;144338.34;;;24.85;35.25
788;BME280;16074;42.708;23.312;2022-10-16T10:32:29;144387.13;;;25.05;34.78
788;BME280;16074;42.708;23.312;2022-10-16T10:35:15;144410.34;;;25.15;33.77
788;BME280;16074;42.708;23.312;2022-10-16T10:38:00;144402.97;;;25.12;34.01
788;BME280;16074;42.708;23.312;2022-10-16T10:40:42;144478.66;;;25.43;33.89
788;BME280;16074;42.708;23.312;2022-10-16T10:43:22;144420.09;;;25.19;33.96
788;BME280;16074;42.708;23.312;2022-10-16T10:45:58;144474.97;;;25.41;33.90
788;BME280;16074;42.708;23.312;2022-10-16T10:48:54;144505.47;;;25.53;33.54
788;BME280;16074;42.708;23.312;2022-10-16T10:51:34;144567.69;;;25.79;33.29
788;BME280;16074;42.708;23.312;2022-10-16T10:54:14;144498.16;;;25.50;33.74
788;BME280;16074;42.708;23.312;2022-10-16T10:56:50;144499.38;;;25.51;33.40
788;BME280;16074;42.708;23.312;2022-10-16T10:59:35;144401.78;;;25.11;34.04
788;BME280;16074;42.708;23.312;2022-10-16T11:02:13;144398.09;;;25.10;33.76
788;BME280;16074;42.708;23.312;2022-10-16T11:04:57;144378.56;;;25.02;34.65
788;BME280;16074;42.708;23.312;2022-10-16T11:07:30;144410.34;;;25.15;34.60
788;BME280;16074;42.708;23.312;2022-10-16T11:10:03;144427.41;;;25.22;34.58
788;BME280;16074;42.708;23.312;2022-10-16T11:12:40;144424.97;;;25.21;33.92
788;BME280;16074;42.708;23.312;2022-10-16T11:15:13;144439.63;;;25.27;34.12
788;BME280;16074;42.708;23.312;2022-10-16T11:17:47;144466.47;;;25.38;34.15
788;BME280;16074;42.708;23.312;2022-10-16T11:20:20;144477.41;;;25.42;33.47
788;BME280;16074;42.708;23.312;2022-10-16T11:22:51;144422.53;;;25.20;33.85
788;BME280;16074;42.708;23.312;2022-10-16T11:25:24;144343.22;;;24.87;34.58
788;BME280;16074;42.708;23.312;2022-10-16T11:28:02;144306.63;;;24.72;34.58
788;BME280;16074;42.708;23.312;2022-10-16T11:30:40;144340.78;;;24.86;34.54
788;BME280;16074;42.708;23.312;2022-10-16T11:33:22;144396.91;;;25.09;33.99
788;BME280;16074;42.708;23.312;2022-10-16T11:35:57;144459.16;;;25.35;34.05
788;BME280;16074;42.708;23.312;2022-10-16T11:38:29;144507.91;;;25.54;34.17
788;BME280;16074;42.708;23.312;2022-10-16T11:41:03;144557.97;;;25.75;32.95
788;BME280;16074;42.708;23.312;2022-10-16T11:43:37;144564.03;;;25.77;32.42
788;BME280;16074;42.708;23.312;2022-10-16T11:46:11;144592.16;;;25.89;32.34
788;BME280;16074;42.708;23.312;2022-10-16T11:48:43;144626.31;;;26.03;32.70
788;BME280;16074;42.708;23.312;2022-10-16T11:51:19;144611.69;;;25.97;32.29
788;BME280;16074;42.708;23.312;2022-10-16T11:53:54;144626.31;;;26.03;31.59
788;BME280;16074;42.708;23.312;2022-10-16T11:56:24;144579.94;;;25.84;31.77
788;BME280;16074;42.708;23.312;2022-10-16T11:58:57;144598.28;;;25.91;31.63
788;BME280;16074;42.708;23.312;2022-10-16T12:01:31;144588.50;;;25.87;31.35
788;BME280;16074;42.708;23.312;2022-10-16T12:04:18;144619.00;;;26.00;31.54
788;BME280;16074;42.708;23.312;2022-10-16T12:06:50;144683.69;;;26.26;31.80
788;BME280;16074;42.708;23.312;2022-10-16T12:09:23;144767.97;;;26.61;31.19
788;BME280;16074;42.708;23.312;2022-10-16T12:11:53;144838.81;;;26.89;30.64
788;BME280;16074;42.708;23.312;2022-10-16T12:14:35;144921.91;;;27.23;29.89
788;BME280;16074;42.708;23.312;2022-10-16T12:17:26;144906.06;;;27.17;29.50
788;BME280;16074;42.708;23.312;2022-10-16T12:19:59;144880.38;;;27.06;29.10
788;BME280;16074;42.708;23.312;2022-10-16T12:22:29;144819.28;;;26.81;29.18
788;BME280;16074;42.708;23.312;2022-10-16T12:24:58;144832.69;;;26.87;29.65
788;BME280;16074;42.708;23.312;2022-10-16T12:27:29;144815.59;;;26.80;30.01
788;BME280;16074;42.708;23.312;2022-10-16T12:30:00;144843.66;;;26.91;30.29
788;BME280;16074;42.708;23.312;2022-10-16T12:32:31;144901.16;;;27.15;29.15
788;BME280;16074;42.708;23.312;2022-10-16T12:35:19;144937.78;;;27.30;28.42
788;BME280;16074;42.708;23.312;2022-10-16T12:37:48;144985.41;;;27.49;28.25
788;BME280;16074;42.708;23.312;2022-10-16T12:40:26;145052.66;;;27.77;27.76
788;BME280;16074;42.708;23.312;2022-10-16T12:42:54;145083.25;;;27.89;27.48
788;BME280;16074;42.708;23.312;2022-10-16T12:45:29;145127.22;;;28.07;27.93
788;BME280;16074;42.708;23.312;2022-10-16T12:48:00;145155.38;;;28.18;27.69
788;BME280;16074;42.708;23.312;2022-10-16T12:50:35;145227.56;;;28.48;27.56
788;BME280;16074;42.708;23.312;2022-10-16T12:53:16;145244.69;;;28.55;27.20
788;BME280;16074;42.708;23.312;2022-10-16T12:55:52;145248.34;;;28.56;27.34
788;BME280;16074;42.708;23.312;2022-10-16T12:58:41;145270.34;;;28.65;26.90
788;BME280;16074;42.708;23.312;2022-10-16T13:01:25;145264.22;;;28.63;26.51
788;BME280;16074;42.708;23.312;2022-10-16T13:04:08;145276.44;;;28.68;26.20
788;BME280;16074;42.708;23.312;2022-10-16T13:06:45;145272.81;;;28.66;26.15
788;BME280;16074;42.708;23.312;2022-10-16T13:09:30;145300.91;;;28.78;26.04
788;BME280;16074;42.708;23.312;2022-10-16T13:15:09;145302.16;;;28.78;26.06
788;BME280;16074;42.708;23.312;2022-10-16T13:17:52;145253.22;;;28.58;27.07
788;BME280;16074;42.708;23.312;2022-10-16T13:20:30;145239.78;;;28.53;26.27
788;BME280;16074;42.708;23.312;2022-10-16T13:23:12;145212.88;;;28.42;27.01
788;BME280;16074;42.708;23.312;2022-10-16T13:25:58;145214.09;;;28.42;27.43
788;BME280;16074;42.708;23.312;2022-10-16T13:28:34;145217.78;;;28.44;27.40
788;BME280;16074;42.708;23.312;2022-10-16T13:31:04;145222.66;;;28.46;27.17